sensor_id;sensor_type;location;lat;lon;timestamp;P1;durP1;ratioP1;P2;durP2;ratioP2
7473;SDS011;3778;42.572;23.426;2023-12-22T00:01:05;6.32;;;3.75;;
7473;SDS011;3778;42.572;23.426;2023-12-22T00:03:31;2.97;;;1.55;;
7473;SDS011;3778;42.572;23.426;2023-12-22T00:05:57;6.63;;;3.67;;
7473;SDS011;3778;42.572;23.426;2023-12-22T00:08:23;7.90;;;4.93;;
7473;SDS011;3778;42.572;23.426;2023-12-22T00:10:51;15.27;;;6.25;;
7473;SDS011;3778;42.572;23.426;2023-12-22T00:13:16;2.25;;;2.15;;
7473;SDS011;3778;42.572;23.426;2023-12-22T00:15:42;7.85;;;4.90;;
7473;SDS011;3778;42.572;23.426;2023-12-22T00:18:08;10.07;;;4.85;;
7473;SDS011;3778;42.572;23.426;2023-12-22T00:20:33;5.53;;;3.80;;
7473;SDS011;3778;42.572;23.426;2023-12-22T00:22:59;11.50;;;5.43;;
7473;SDS011;3778;42.572;23.426;2023-12-22T00:25:25;7.25;;;3.72;;
7473;SDS011;3778;42.572;23.426;2023-12-22T00:27:50;4.32;;;1.67;;
7473;SDS011;3778;42.572;23.426;2023-12-22T00:30:16;6.22;;;3.65;;
7473;SDS011;3778;42.572;23.426;2023-12-22T00:32:41;9.35;;;4.63;;
7473;SDS011;3778;42.572;23.426;2023-12-22T00:35:07;2.47;;;2.17;;
7473;SDS011;3778;42.572;23.426;2023-12-22T00:37:33;14.68;;;4.38;;
7473;SDS011;3778;42.572;23.426;2023-12-22T00:39:58;4.78;;;2.92;;
7473;SDS011;3778;42.572;23.426;2023-12-22T00:42:23;8.63;;;3.90;;
7473;SDS011;3778;42.572;23.426;2023-12-22T00:44:49;7.25;;;4.90;;
7473;SDS011;3778;42.572;23.426;2023-12-22T00:47:14;2.53;;;1.83;;
7473;SDS011;3778;42.572;23.426;2023-12-22T00:49:40;5.57;;;3.78;;
7473;SDS011;3778;42.572;23.426;2023-12-22T00:52:05;4.13;;;3.45;;
7473;SDS011;3778;42.572;23.426;2023-12-22T00:54:31;4.13;;;2.90;;
7473;SDS011;3778;42.572;23.426;2023-12-22T00:56:56;7.63;;;4.30;;
7473;SDS011;3778;42.572;23.426;2023-12-22T00:59:22;11.05;;;5.60;;
7473;SDS011;3778;42.572;23.426;2023-12-22T01:01:48;9.20;;;4.50;;
7473;SDS011;3778;42.572;23.426;2023-12-22T01:04:14;5.65;;;3.38;;
7473;SDS011;3778;42.572;23.426;2023-12-22T01:06:40;7.43;;;5.20;;
7473;SDS011;3778;42.572;23.426;2023-12-22T01:09:05;5.20;;;3.15;;
7473;SDS011;3778;42.572;23.426;2023-12-22T01:11:31;7.28;;;3.70;;
7473;SDS011;3778;42.572;23.426;2023-12-22T01:13:57;10.57;;;4.68;;
7473;SDS011;3778;42.572;23.426;2023-12-22T01:16:22;5.75;;;3.47;;
7473;SDS011;3778;42.572;23.426;2023-12-22T01:18:49;7.20;;;3.42;;
7473;SDS011;3778;42.572;23.426;2023-12-22T01:21:15;5.03;;;4.60;;
7473;SDS011;3778;42.572;23.426;2023-12-22T01:23:43;7.15;;;3.92;;
7473;SDS011;3778;42.572;23.426;2023-12-22T01:26:09;8.50;;;3.50;;
7473;SDS011;3778;42.572;23.426;2023-12-22T01:28:34;6.95;;;4.05;;
7473;SDS011;3778;42.572;23.426;2023-12-22T01:31:00;11.75;;;5.40;;
7473;SDS011;3778;42.572;23.426;2023-12-22T01:33:26;10.88;;;5.50;;
7473;SDS011;3778;42.572;23.426;2023-12-22T01:35:51;13.18;;;5.22;;
7473;SDS011;3778;42.572;23.426;2023-12-22T01:38:17;13.35;;;5.78;;
7473;SDS011;3778;42.572;23.426;2023-12-22T01:40:42;12.55;;;5.57;;
7473;SDS011;3778;42.572;23.426;2023-12-22T01:43:08;9.32;;;4.95;;
7473;SDS011;3778;42.572;23.426;2023-12-22T01:45:33;14.85;;;6.05;;
7473;SDS011;3778;42.572;23.426;2023-12-22T01:47:58;12.25;;;5.82;;
7473;SDS011;3778;42.572;23.426;2023-12-22T01:50:24;12.30;;;5.82;;
7473;SDS011;3778;42.572;23.426;2023-12-22T01:52:50;11.77;;;5.93;;
7473;SDS011;3778;42.572;23.426;2023-12-22T01:55:16;10.55;;;6.15;;
7473;SDS011;3778;42.572;23.426;2023-12-22T01:57:42;12.20;;;5.38;;
7473;SDS011;3778;42.572;23.426;2023-12-22T02:00:09;15.10;;;6.32;;
7473;SDS011;3778;42.572;23.426;2023-12-22T02:02:35;11.35;;;5.15;;
7473;SDS011;3778;42.572;23.426;2023-12-22T02:05:03;9.30;;;4.22;;
7473;SDS011;3778;42.572;23.426;2023-12-22T02:07:29;4.75;;;3.97;;
7473;SDS011;3778;42.572;23.426;2023-12-22T02:09:55;9.93;;;5.10;;
7473;SDS011;3778;42.572;23.426;2023-12-22T02:12:21;10.68;;;5.47;;
7473;SDS011;3778;42.572;23.426;2023-12-22T02:14:46;11.75;;;5.90;;
7473;SDS011;3778;42.572;23.426;2023-12-22T02:17:17;15.52;;;5.95;;
7473;SDS011;3778;42.572;23.426;2023-12-22T02:19:49;12.55;;;6.45;;
7473;SDS011;3778;42.572;23.426;2023-12-22T02:22:16;11.27;;;5.03;;
7473;SDS011;3778;42.572;23.426;2023-12-22T02:24:41;11.77;;;5.80;;
7473;SDS011;3778;42.572;23.426;2023-12-22T02:27:14;11.68;;;5.20;;
7473;SDS011;3778;42.572;23.426;2023-12-22T02:30:03;9.18;;;5.13;;
7473;SDS011;3778;42.572;23.426;2023-12-22T02:32:32;13.85;;;5.88;;
7473;SDS011;3778;42.572;23.426;2023-12-22T02:35:02;10.05;;;5.43;;
7473;SDS011;3778;42.572;23.426;2023-12-22T02:37:32;12.90;;;6.55;;
7473;SDS011;3778;42.572;23.426;2023-12-22T02:40:00;17.10;;;7.00;;
7473;SDS011;3778;42.572;23.426;2023-12-22T02:42:27;10.48;;;6.50;;
7473;SDS011;3778;42.572;23.426;2023-12-22T02:44:58;11.75;;;5.10;;
7473;SDS011;3778;42.572;23.426;2023-12-22T02:47:24;11.38;;;4.43;;
7473;SDS011;3778;42.572;23.426;2023-12-22T02:49:52;6.35;;;3.63;;
7473;SDS011;3778;42.572;23.426;2023-12-22T02:52:18;15.05;;;7.35;;
7473;SDS011;3778;42.572;23.426;2023-12-22T02:54:43;15.40;;;6.57;;
7473;SDS011;3778;42.572;23.426;2023-12-22T02:57:09;5.45;;;2.85;;
7473;SDS011;3778;42.572;23.426;2023-12-22T02:59:35;5.40;;;2.30;;
7473;SDS011;3778;42.572;23.426;2023-12-22T03:02:02;4.05;;;1.88;;
7473;SDS011;3778;42.572;23.426;2023-12-22T03:04:27;3.55;;;2.60;;
7473;SDS011;3778;42.572;23.426;2023-12-22T03:06:53;4.85;;;2.47;;
7473;SDS011;3778;42.572;23.426;2023-12-22T03:09:18;4.18;;;2.60;;
7473;SDS011;3778;42.572;23.426;2023-12-22T03:11:43;4.13;;;2.38;;
7473;SDS011;3778;42.572;23.426;2023-12-22T03:14:09;7.10;;;1.58;;
7473;SDS011;3778;42.572;23.426;2023-12-22T03:16:35;4.13;;;2.90;;
7473;SDS011;3778;42.572;23.426;2023-12-22T03:19:00;0.93;;;0.82;;
7473;SDS011;3778;42.572;23.426;2023-12-22T03:21:26;4.25;;;1.65;;
7473;SDS011;3778;42.572;23.426;2023-12-22T03:23:51;2.33;;;1.60;;
7473;SDS011;3778;42.572;23.426;2023-12-22T03:26:17;4.20;;;3.13;;
7473;SDS011;3778;42.572;23.426;2023-12-22T03:28:42;3.05;;;1.55;;
7473;SDS011;3778;42.572;23.426;2023-12-22T03:31:07;2.00;;;1.20;;
7473;SDS011;3778;42.572;23.426;2023-12-22T03:33:33;5.72;;;3.40;;
7473;SDS011;3778;42.572;23.426;2023-12-22T03:35:58;6.30;;;2.72;;
7473;SDS011;3778;42.572;23.426;2023-12-22T03:38:24;5.32;;;3.20;;
7473;SDS011;3778;42.572;23.426;2023-12-22T03:40:49;4.07;;;2.80;;
7473;SDS011;3778;42.572;23.426;2023-12-22T03:43:14;7.18;;;3.33;;
7473;SDS011;3778;42.572;23.426;2023-12-22T03:45:40;6.50;;;3.38;;
7473;SDS011;3778;42.572;23.426;2023-12-22T03:48:05;4.32;;;1.35;;
7473;SDS011;3778;42.572;23.426;2023-12-22T03:50:31;6.95;;;3.97;;
7473;SDS011;3778;42.572;23.426;2023-12-22T03:52:56;12.82;;;5.72;;
7473;SDS011;3778;42.572;23.426;2023-12-22T03:55:22;14.82;;;5.93;;
7473;SDS011;3778;42.572;23.426;2023-12-22T03:57:47;14.05;;;7.43;;
7473;SDS011;3778;42.572;23.426;2023-12-22T04:00:13;16.75;;;7.22;;
7473;SDS011;3778;42.572;23.426;2023-12-22T04:02:39;15.00;;;8.63;;
7473;SDS011;3778;42.572;23.426;2023-12-22T04:05:05;14.90;;;8.15;;
7473;SDS011;3778;42.572;23.426;2023-12-22T04:07:31;16.77;;;8.63;;
7473;SDS011;3778;42.572;23.426;2023-12-22T04:09:56;18.02;;;9.50;;
7473;SDS011;3778;42.572;23.426;2023-12-22T04:12:21;4.78;;;3.08;;
7473;SDS011;3778;42.572;23.426;2023-12-22T04:14:47;12.38;;;6.57;;
7473;SDS011;3778;42.572;23.426;2023-12-22T04:17:12;18.42;;;9.73;;
7473;SDS011;3778;42.572;23.426;2023-12-22T04:19:37;15.38;;;8.18;;
7473;SDS011;3778;42.572;23.426;2023-12-22T04:22:03;16.48;;;7.38;;
7473;SDS011;3778;42.572;23.426;2023-12-22T04:24:28;13.23;;;7.03;;
7473;SDS011;3778;42.572;23.426;2023-12-22T04:26:54;13.15;;;7.13;;
7473;SDS011;3778;42.572;23.426;2023-12-22T04:29:19;19.50;;;9.10;;
7473;SDS011;3778;42.572;23.426;2023-12-22T04:31:44;14.82;;;9.25;;
7473;SDS011;3778;42.572;23.426;2023-12-22T04:34:11;16.92;;;8.05;;
7473;SDS011;3778;42.572;23.426;2023-12-22T04:36:39;20.55;;;9.95;;
7473;SDS011;3778;42.572;23.426;2023-12-22T04:39:04;17.05;;;7.95;;
7473;SDS011;3778;42.572;23.426;2023-12-22T04:41:29;17.38;;;7.28;;
7473;SDS011;3778;42.572;23.426;2023-12-22T04:43:55;12.48;;;7.40;;
7473;SDS011;3778;42.572;23.426;2023-12-22T04:46:20;11.43;;;6.03;;
7473;SDS011;3778;42.572;23.426;2023-12-22T04:48:46;10.50;;;5.95;;
7473;SDS011;3778;42.572;23.426;2023-12-22T04:51:11;14.57;;;7.53;;
7473;SDS011;3778;42.572;23.426;2023-12-22T04:53:36;13.85;;;6.10;;
7473;SDS011;3778;42.572;23.426;2023-12-22T04:56:02;14.38;;;6.32;;
7473;SDS011;3778;42.572;23.426;2023-12-22T04:58:27;3.45;;;1.77;;
7473;SDS011;3778;42.572;23.426;2023-12-22T05:00:53;14.75;;;7.50;;
7473;SDS011;3778;42.572;23.426;2023-12-22T05:03:18;14.68;;;7.10;;
7473;SDS011;3778;42.572;23.426;2023-12-22T05:05:44;18.67;;;7.43;;
7473;SDS011;3778;42.572;23.426;2023-12-22T05:08:09;14.57;;;7.05;;
7473;SDS011;3778;42.572;23.426;2023-12-22T05:10:34;4.15;;;3.30;;
7473;SDS011;3778;42.572;23.426;2023-12-22T05:13:00;13.23;;;7.00;;
7473;SDS011;3778;42.572;23.426;2023-12-22T05:15:25;14.32;;;7.15;;
7473;SDS011;3778;42.572;23.426;2023-12-22T05:17:52;5.22;;;2.00;;
7473;SDS011;3778;42.572;23.426;2023-12-22T05:20:17;11.40;;;5.80;;
7473;SDS011;3778;42.572;23.426;2023-12-22T05:22:43;9.70;;;5.28;;
7473;SDS011;3778;42.572;23.426;2023-12-22T05:25:08;1.55;;;1.45;;
7473;SDS011;3778;42.572;23.426;2023-12-22T05:27:35;12.38;;;6.15;;
7473;SDS011;3778;42.572;23.426;2023-12-22T05:30:00;2.13;;;1.92;;
7473;SDS011;3778;42.572;23.426;2023-12-22T05:32:28;11.52;;;5.93;;
7473;SDS011;3778;42.572;23.426;2023-12-22T05:34:54;10.23;;;5.07;;
7473;SDS011;3778;42.572;23.426;2023-12-22T05:37:20;12.88;;;6.68;;
7473;SDS011;3778;42.572;23.426;2023-12-22T05:39:45;20.98;;;8.82;;
7473;SDS011;3778;42.572;23.426;2023-12-22T05:42:11;20.38;;;9.45;;
7473;SDS011;3778;42.572;23.426;2023-12-22T05:44:36;11.68;;;6.85;;
7473;SDS011;3778;42.572;23.426;2023-12-22T05:47:03;10.45;;;7.72;;
7473;SDS011;3778;42.572;23.426;2023-12-22T05:49:29;22.55;;;9.68;;
7473;SDS011;3778;42.572;23.426;2023-12-22T05:51:55;18.40;;;8.88;;
7473;SDS011;3778;42.572;23.426;2023-12-22T05:54:21;15.05;;;8.18;;
7473;SDS011;3778;42.572;23.426;2023-12-22T05:56:46;16.08;;;8.50;;
7473;SDS011;3778;42.572;23.426;2023-12-22T05:59:12;14.32;;;9.43;;
7473;SDS011;3778;42.572;23.426;2023-12-22T06:01:37;17.00;;;9.00;;
7473;SDS011;3778;42.572;23.426;2023-12-22T06:04:02;17.83;;;8.38;;
7473;SDS011;3778;42.572;23.426;2023-12-22T06:06:28;6.13;;;4.15;;
7473;SDS011;3778;42.572;23.426;2023-12-22T06:08:55;4.43;;;3.70;;
7473;SDS011;3778;42.572;23.426;2023-12-22T06:11:20;16.77;;;8.05;;
7473;SDS011;3778;42.572;23.426;2023-12-22T06:13:47;18.73;;;8.32;;
7473;SDS011;3778;42.572;23.426;2023-12-22T06:16:12;18.30;;;7.68;;
7473;SDS011;3778;42.572;23.426;2023-12-22T06:18:39;6.47;;;4.13;;
7473;SDS011;3778;42.572;23.426;2023-12-22T06:21:05;16.27;;;6.78;;
7473;SDS011;3778;42.572;23.426;2023-12-22T06:23:31;12.25;;;6.15;;
7473;SDS011;3778;42.572;23.426;2023-12-22T06:25:57;13.30;;;6.65;;
7473;SDS011;3778;42.572;23.426;2023-12-22T06:28:22;15.07;;;7.85;;
7473;SDS011;3778;42.572;23.426;2023-12-22T06:30:47;12.50;;;6.65;;
7473;SDS011;3778;42.572;23.426;2023-12-22T06:33:13;6.57;;;4.53;;
7473;SDS011;3778;42.572;23.426;2023-12-22T06:35:38;14.15;;;7.30;;
7473;SDS011;3778;42.572;23.426;2023-12-22T06:38:06;17.80;;;6.95;;
7473;SDS011;3778;42.572;23.426;2023-12-22T06:40:32;15.70;;;7.78;;
7473;SDS011;3778;42.572;23.426;2023-12-22T06:42:57;18.10;;;9.13;;
7473;SDS011;3778;42.572;23.426;2023-12-22T06:45:23;15.77;;;9.45;;
7473;SDS011;3778;42.572;23.426;2023-12-22T06:47:48;15.98;;;7.88;;
7473;SDS011;3778;42.572;23.426;2023-12-22T06:50:13;14.77;;;7.55;;
7473;SDS011;3778;42.572;23.426;2023-12-22T06:52:39;13.60;;;7.32;;
7473;SDS011;3778;42.572;23.426;2023-12-22T06:55:04;12.98;;;6.25;;
7473;SDS011;3778;42.572;23.426;2023-12-22T06:57:30;16.25;;;7.53;;
7473;SDS011;3778;42.572;23.426;2023-12-22T06:59:55;17.48;;;7.90;;
7473;SDS011;3778;42.572;23.426;2023-12-22T07:02:21;22.88;;;9.98;;
7473;SDS011;3778;42.572;23.426;2023-12-22T07:04:59;20.70;;;10.32;;
7473;SDS011;3778;42.572;23.426;2023-12-22T07:07:33;22.08;;;9.98;;
7473;SDS011;3778;42.572;23.426;2023-12-22T07:09:59;20.23;;;9.52;;
7473;SDS011;3778;42.572;23.426;2023-12-22T07:12:24;19.33;;;10.48;;
7473;SDS011;3778;42.572;23.426;2023-12-22T07:14:50;21.95;;;9.77;;
7473;SDS011;3778;42.572;23.426;2023-12-22T07:17:15;13.60;;;8.20;;
7473;SDS011;3778;42.572;23.426;2023-12-22T07:19:40;20.38;;;9.98;;
7473;SDS011;3778;42.572;23.426;2023-12-22T07:22:06;16.73;;;8.38;;
7473;SDS011;3778;42.572;23.426;2023-12-22T07:24:31;8.05;;;4.57;;
7473;SDS011;3778;42.572;23.426;2023-12-22T07:26:57;3.83;;;3.08;;
7473;SDS011;3778;42.572;23.426;2023-12-22T07:29:22;10.57;;;6.80;;
7473;SDS011;3778;42.572;23.426;2023-12-22T07:31:47;17.55;;;9.00;;
7473;SDS011;3778;42.572;23.426;2023-12-22T07:34:13;16.23;;;8.73;;
7473;SDS011;3778;42.572;23.426;2023-12-22T07:36:39;20.92;;;10.75;;
7473;SDS011;3778;42.572;23.426;2023-12-22T07:39:05;15.43;;;9.40;;
7473;SDS011;3778;42.572;23.426;2023-12-22T07:41:31;13.35;;;7.32;;
7473;SDS011;3778;42.572;23.426;2023-12-22T07:43:57;18.05;;;8.95;;
7473;SDS011;3778;42.572;23.426;2023-12-22T07:46:22;13.77;;;7.05;;
7473;SDS011;3778;42.572;23.426;2023-12-22T07:48:48;2.42;;;1.75;;
7473;SDS011;3778;42.572;23.426;2023-12-22T07:51:14;2.88;;;1.85;;
7473;SDS011;3778;42.572;23.426;2023-12-22T07:53:39;12.68;;;6.47;;
7473;SDS011;3778;42.572;23.426;2023-12-22T07:56:05;11.45;;;5.55;;
7473;SDS011;3778;42.572;23.426;2023-12-22T07:58:31;6.40;;;3.22;;
7473;SDS011;3778;42.572;23.426;2023-12-22T08:00:57;13.38;;;7.55;;
7473;SDS011;3778;42.572;23.426;2023-12-22T08:03:23;12.48;;;7.78;;
7473;SDS011;3778;42.572;23.426;2023-12-22T08:05:49;16.08;;;8.02;;
7473;SDS011;3778;42.572;23.426;2023-12-22T08:08:14;17.02;;;8.68;;
7473;SDS011;3778;42.572;23.426;2023-12-22T08:10:40;9.32;;;4.68;;
7473;SDS011;3778;42.572;23.426;2023-12-22T08:13:06;14.40;;;8.07;;
7473;SDS011;3778;42.572;23.426;2023-12-22T08:15:31;11.23;;;6.30;;
7473;SDS011;3778;42.572;23.426;2023-12-22T08:17:57;12.48;;;6.40;;
7473;SDS011;3778;42.572;23.426;2023-12-22T08:20:22;15.55;;;7.53;;
7473;SDS011;3778;42.572;23.426;2023-12-22T08:22:48;15.30;;;7.78;;
7473;SDS011;3778;42.572;23.426;2023-12-22T08:25:15;19.35;;;8.60;;
7473;SDS011;3778;42.572;23.426;2023-12-22T08:27:41;21.98;;;9.68;;
7473;SDS011;3778;42.572;23.426;2023-12-22T08:30:07;12.10;;;6.22;;
7473;SDS011;3778;42.572;23.426;2023-12-22T08:32:34;11.85;;;6.72;;
7473;SDS011;3778;42.572;23.426;2023-12-22T08:34:59;16.50;;;8.20;;
7473;SDS011;3778;42.572;23.426;2023-12-22T08:37:24;15.90;;;7.95;;
7473;SDS011;3778;42.572;23.426;2023-12-22T08:39:50;16.30;;;7.75;;
7473;SDS011;3778;42.572;23.426;2023-12-22T08:42:16;14.57;;;7.53;;
7473;SDS011;3778;42.572;23.426;2023-12-22T08:44:42;13.10;;;7.72;;
7473;SDS011;3778;42.572;23.426;2023-12-22T08:47:07;13.98;;;8.10;;
7473;SDS011;3778;42.572;23.426;2023-12-22T08:49:33;14.85;;;8.63;;
7473;SDS011;3778;42.572;23.426;2023-12-22T08:51:58;16.35;;;10.82;;
7473;SDS011;3778;42.572;23.426;2023-12-22T08:54:24;11.02;;;7.03;;
7473;SDS011;3778;42.572;23.426;2023-12-22T08:56:49;12.23;;;6.65;;
7473;SDS011;3778;42.572;23.426;2023-12-22T08:59:14;10.70;;;6.57;;
7473;SDS011;3778;42.572;23.426;2023-12-22T09:01:40;14.27;;;7.45;;
7473;SDS011;3778;42.572;23.426;2023-12-22T09:04:09;5.88;;;3.83;;
7473;SDS011;3778;42.572;23.426;2023-12-22T09:06:36;13.98;;;6.47;;
7473;SDS011;3778;42.572;23.426;2023-12-22T09:09:01;17.67;;;8.80;;
7473;SDS011;3778;42.572;23.426;2023-12-22T09:11:28;11.52;;;7.05;;
7473;SDS011;3778;42.572;23.426;2023-12-22T09:13:54;14.70;;;6.72;;
7473;SDS011;3778;42.572;23.426;2023-12-22T09:16:22;13.48;;;7.25;;
7473;SDS011;3778;42.572;23.426;2023-12-22T09:18:49;15.30;;;8.63;;
7473;SDS011;3778;42.572;23.426;2023-12-22T09:21:16;14.35;;;8.18;;
7473;SDS011;3778;42.572;23.426;2023-12-22T09:23:43;17.23;;;9.88;;
7473;SDS011;3778;42.572;23.426;2023-12-22T09:26:10;25.27;;;12.15;;
7473;SDS011;3778;42.572;23.426;2023-12-22T09:28:36;22.73;;;10.80;;
7473;SDS011;3778;42.572;23.426;2023-12-22T09:31:01;20.42;;;11.43;;
7473;SDS011;3778;42.572;23.426;2023-12-22T09:33:30;22.40;;;11.73;;
7473;SDS011;3778;42.572;23.426;2023-12-22T09:35:56;27.20;;;12.80;;
7473;SDS011;3778;42.572;23.426;2023-12-22T09:38:21;32.78;;;15.88;;
7473;SDS011;3778;42.572;23.426;2023-12-22T09:40:48;29.75;;;14.98;;
7473;SDS011;3778;42.572;23.426;2023-12-22T09:43:17;25.50;;;13.73;;
7473;SDS011;3778;42.572;23.426;2023-12-22T09:45:45;28.13;;;12.77;;
7473;SDS011;3778;42.572;23.426;2023-12-22T09:48:12;22.30;;;12.30;;
7473;SDS011;3778;42.572;23.426;2023-12-22T09:50:45;19.05;;;10.57;;
7473;SDS011;3778;42.572;23.426;2023-12-22T09:53:14;26.00;;;16.23;;
7473;SDS011;3778;42.572;23.426;2023-12-22T09:55:42;18.73;;;10.10;;
7473;SDS011;3778;42.572;23.426;2023-12-22T09:58:11;17.98;;;9.43;;
7473;SDS011;3778;42.572;23.426;2023-12-22T10:00:37;12.63;;;7.18;;
7473;SDS011;3778;42.572;23.426;2023-12-22T10:03:07;15.85;;;8.43;;
7473;SDS011;3778;42.572;23.426;2023-12-22T10:05:34;16.67;;;8.65;;
7473;SDS011;3778;42.572;23.426;2023-12-22T10:08:00;18.60;;;9.98;;
7473;SDS011;3778;42.572;23.426;2023-12-22T10:10:29;17.20;;;9.25;;
7473;SDS011;3778;42.572;23.426;2023-12-22T10:12:55;15.90;;;9.18;;
7473;SDS011;3778;42.572;23.426;2023-12-22T10:15:21;18.98;;;10.30;;
7473;SDS011;3778;42.572;23.426;2023-12-22T10:17:50;17.40;;;8.95;;
7473;SDS011;3778;42.572;23.426;2023-12-22T10:20:17;25.88;;;13.48;;
7473;SDS011;3778;42.572;23.426;2023-12-22T10:22:42;24.58;;;12.70;;
7473;SDS011;3778;42.572;23.426;2023-12-22T10:25:08;23.10;;;10.57;;
7473;SDS011;3778;42.572;23.426;2023-12-22T10:27:34;18.05;;;8.43;;
7473;SDS011;3778;42.572;23.426;2023-12-22T10:30:01;7.28;;;3.42;;
7473;SDS011;3778;42.572;23.426;2023-12-22T10:32:28;12.73;;;7.28;;
7473;SDS011;3778;42.572;23.426;2023-12-22T10:34:55;8.15;;;4.85;;
7473;SDS011;3778;42.572;23.426;2023-12-22T10:37:22;17.63;;;7.90;;
7473;SDS011;3778;42.572;23.426;2023-12-22T10:39:51;12.90;;;7.78;;
7473;SDS011;3778;42.572;23.426;2023-12-22T10:42:17;6.78;;;4.88;;
7473;SDS011;3778;42.572;23.426;2023-12-22T10:44:43;10.57;;;7.22;;
7473;SDS011;3778;42.572;23.426;2023-12-22T10:47:08;11.65;;;5.88;;
7473;SDS011;3778;42.572;23.426;2023-12-22T10:49:34;8.07;;;4.80;;
7473;SDS011;3778;42.572;23.426;2023-12-22T10:52:01;18.25;;;5.47;;
7473;SDS011;3778;42.572;23.426;2023-12-22T10:54:26;11.68;;;6.70;;
7473;SDS011;3778;42.572;23.426;2023-12-22T10:56:52;13.57;;;7.18;;
7473;SDS011;3778;42.572;23.426;2023-12-22T10:59:23;9.80;;;5.85;;
7473;SDS011;3778;42.572;23.426;2023-12-22T11:01:57;11.98;;;6.95;;
7473;SDS011;3778;42.572;23.426;2023-12-22T11:04:25;8.40;;;5.10;;
7473;SDS011;3778;42.572;23.426;2023-12-22T11:06:54;5.88;;;2.92;;
7473;SDS011;3778;42.572;23.426;2023-12-22T11:09:23;14.15;;;6.57;;
7473;SDS011;3778;42.572;23.426;2023-12-22T11:11:50;13.95;;;7.25;;
7473;SDS011;3778;42.572;23.426;2023-12-22T11:14:16;10.93;;;6.25;;
7473;SDS011;3778;42.572;23.426;2023-12-22T11:16:42;10.32;;;6.63;;
7473;SDS011;3778;42.572;23.426;2023-12-22T11:19:13;10.18;;;5.18;;
7473;SDS011;3778;42.572;23.426;2023-12-22T11:21:40;9.30;;;4.47;;
7473;SDS011;3778;42.572;23.426;2023-12-22T11:24:06;7.43;;;4.70;;
7473;SDS011;3778;42.572;23.426;2023-12-22T11:26:32;6.88;;;4.20;;
7473;SDS011;3778;42.572;23.426;2023-12-22T11:28:57;7.28;;;3.60;;
7473;SDS011;3778;42.572;23.426;2023-12-22T11:31:24;9.43;;;4.07;;
7473;SDS011;3778;42.572;23.426;2023-12-22T11:33:52;7.43;;;4.57;;
7473;SDS011;3778;42.572;23.426;2023-12-22T11:36:21;7.60;;;3.60;;
7473;SDS011;3778;42.572;23.426;2023-12-22T11:38:48;2.75;;;2.15;;
7473;SDS011;3778;42.572;23.426;2023-12-22T11:41:20;5.18;;;3.35;;
7473;SDS011;3778;42.572;23.426;2023-12-22T11:43:49;9.02;;;5.25;;
7473;SDS011;3778;42.572;23.426;2023-12-22T11:46:16;8.57;;;5.28;;
7473;SDS011;3778;42.572;23.426;2023-12-22T11:48:49;8.85;;;6.00;;
7473;SDS011;3778;42.572;23.426;2023-12-22T11:51:17;10.20;;;5.60;;
7473;SDS011;3778;42.572;23.426;2023-12-22T11:53:43;10.55;;;5.70;;
7473;SDS011;3778;42.572;23.426;2023-12-22T11:56:10;11.85;;;7.63;;
7473;SDS011;3778;42.572;23.426;2023-12-22T11:58:43;18.77;;;8.82;;
7473;SDS011;3778;42.572;23.426;2023-12-22T12:01:16;13.10;;;9.30;;
7473;SDS011;3778;42.572;23.426;2023-12-22T12:08:50;17.52;;;9.75;;
7473;SDS011;3778;42.572;23.426;2023-12-22T12:11:16;3.55;;;2.53;;
7473;SDS011;3778;42.572;23.426;2023-12-22T12:13:43;2.65;;;2.33;;
7473;SDS011;3778;42.572;23.426;2023-12-22T12:16:10;19.02;;;10.63;;
7473;SDS011;3778;42.572;23.426;2023-12-22T12:18:39;25.10;;;11.38;;
7473;SDS011;3778;42.572;23.426;2023-12-22T12:21:06;18.98;;;10.98;;
7473;SDS011;3778;42.572;23.426;2023-12-22T12:23:32;25.10;;;11.95;;
7473;SDS011;3778;42.572;23.426;2023-12-22T12:25:58;20.92;;;11.55;;
7473;SDS011;3778;42.572;23.426;2023-12-22T12:28:34;17.25;;;9.13;;
7473;SDS011;3778;42.572;23.426;2023-12-22T12:31:03;13.80;;;7.70;;
7473;SDS011;3778;42.572;23.426;2023-12-22T12:33:30;11.32;;;5.30;;
7473;SDS011;3778;42.572;23.426;2023-12-22T12:35:56;12.63;;;6.78;;
7473;SDS011;3778;42.572;23.426;2023-12-22T12:38:27;18.00;;;8.43;;
7473;SDS011;3778;42.572;23.426;2023-12-22T12:41:14;10.65;;;5.45;;
7473;SDS011;3778;42.572;23.426;2023-12-22T12:43:41;8.23;;;4.40;;
7473;SDS011;3778;42.572;23.426;2023-12-22T12:46:10;11.40;;;5.00;;
7473;SDS011;3778;42.572;23.426;2023-12-22T12:48:36;6.60;;;4.30;;
7473;SDS011;3778;42.572;23.426;2023-12-22T12:51:05;10.05;;;3.95;;
7473;SDS011;3778;42.572;23.426;2023-12-22T12:53:31;6.53;;;4.18;;
7473;SDS011;3778;42.572;23.426;2023-12-22T12:56:00;9.93;;;5.60;;
7473;SDS011;3778;42.572;23.426;2023-12-22T12:58:29;8.30;;;5.18;;
7473;SDS011;3778;42.572;23.426;2023-12-22T13:01:04;9.02;;;3.47;;
7473;SDS011;3778;42.572;23.426;2023-12-22T13:03:31;6.15;;;4.05;;
7473;SDS011;3778;42.572;23.426;2023-12-22T13:06:08;5.57;;;3.30;;
7473;SDS011;3778;42.572;23.426;2023-12-22T13:08:34;2.47;;;1.70;;
7473;SDS011;3778;42.572;23.426;2023-12-22T13:11:00;5.50;;;3.15;;
7473;SDS011;3778;42.572;23.426;2023-12-22T13:13:26;1.27;;;1.17;;
7473;SDS011;3778;42.572;23.426;2023-12-22T13:15:52;1.75;;;1.25;;
7473;SDS011;3778;42.572;23.426;2023-12-22T13:18:17;2.03;;;1.38;;
7473;SDS011;3778;42.572;23.426;2023-12-22T13:20:43;3.67;;;2.70;;
7473;SDS011;3778;42.572;23.426;2023-12-22T13:23:08;3.80;;;2.47;;
7473;SDS011;3778;42.572;23.426;2023-12-22T13:25:40;6.05;;;3.22;;
7473;SDS011;3778;42.572;23.426;2023-12-22T13:28:05;3.55;;;1.52;;
7473;SDS011;3778;42.572;23.426;2023-12-22T13:30:31;12.57;;;2.90;;
7473;SDS011;3778;42.572;23.426;2023-12-22T13:33:05;7.05;;;2.80;;
7473;SDS011;3778;42.572;23.426;2023-12-22T13:35:31;5.72;;;3.03;;
7473;SDS011;3778;42.572;23.426;2023-12-22T13:37:58;5.15;;;2.70;;
7473;SDS011;3778;42.572;23.426;2023-12-22T13:40:24;3.53;;;2.47;;
7473;SDS011;3778;42.572;23.426;2023-12-22T13:42:58;2.50;;;1.75;;
7473;SDS011;3778;42.572;23.426;2023-12-22T13:45:25;3.03;;;2.60;;
7473;SDS011;3778;42.572;23.426;2023-12-22T13:47:51;5.25;;;3.47;;
7473;SDS011;3778;42.572;23.426;2023-12-22T13:50:17;4.60;;;2.92;;
7473;SDS011;3778;42.572;23.426;2023-12-22T13:52:43;5.45;;;2.75;;
7473;SDS011;3778;42.572;23.426;2023-12-22T13:55:13;5.85;;;2.70;;
7473;SDS011;3778;42.572;23.426;2023-12-22T13:57:41;6.82;;;2.63;;
7473;SDS011;3778;42.572;23.426;2023-12-22T14:02:44;2.38;;;1.83;;
7473;SDS011;3778;42.572;23.426;2023-12-22T14:05:10;7.60;;;3.83;;
7473;SDS011;3778;42.572;23.426;2023-12-22T14:07:36;2.40;;;1.35;;
7473;SDS011;3778;42.572;23.426;2023-12-22T14:10:05;1.65;;;1.55;;
7473;SDS011;3778;42.572;23.426;2023-12-22T14:12:31;2.00;;;1.13;;
7473;SDS011;3778;42.572;23.426;2023-12-22T14:14:57;2.33;;;0.82;;
7473;SDS011;3778;42.572;23.426;2023-12-22T14:17:22;0.47;;;0.32;;
7473;SDS011;3778;42.572;23.426;2023-12-22T14:19:47;0.68;;;0.68;;
7473;SDS011;3778;42.572;23.426;2023-12-22T14:22:14;1.90;;;0.95;;
7473;SDS011;3778;42.572;23.426;2023-12-22T14:24:40;0.68;;;0.57;;
7473;SDS011;3778;42.572;23.426;2023-12-22T14:27:05;0.75;;;0.40;;
7473;SDS011;3778;42.572;23.426;2023-12-22T14:29:31;1.40;;;0.80;;
7473;SDS011;3778;42.572;23.426;2023-12-22T14:31:56;1.75;;;0.50;;
7473;SDS011;3778;42.572;23.426;2023-12-22T14:34:21;1.40;;;0.70;;
7473;SDS011;3778;42.572;23.426;2023-12-22T14:36:47;0.82;;;0.60;;
7473;SDS011;3778;42.572;23.426;2023-12-22T14:39:12;0.52;;;0.50;;
7473;SDS011;3778;42.572;23.426;2023-12-22T14:41:39;1.15;;;0.70;;
7473;SDS011;3778;42.572;23.426;2023-12-22T14:44:05;2.78;;;0.68;;
7473;SDS011;3778;42.572;23.426;2023-12-22T14:46:31;2.85;;;1.00;;
7473;SDS011;3778;42.572;23.426;2023-12-22T14:48:56;3.90;;;0.82;;
7473;SDS011;3778;42.572;23.426;2023-12-22T14:51:22;2.47;;;1.40;;
7473;SDS011;3778;42.572;23.426;2023-12-22T14:53:47;0.60;;;0.47;;
7473;SDS011;3778;42.572;23.426;2023-12-22T14:56:12;0.80;;;0.65;;